Time;durP1;ratioP1;P1;durP2;ratioP2;P2;SDS_P1;SDS_P2;PMS_P1;PMS_P2;Temp;Humidity;BMP_temperature;BMP_pressure;BME280_temperature;BME280_humidity;BME280_pressure;Samples;Min_cycle;Max_cycle;Signal;HPM_P1;HPM_P2
2021/04/26 00:00:29;;;;;;;7.20;1.00;;;4.80;82.10;;;;;;5090691;27;20452;-80
2021/04/26 00:03:07;;;;;;;6.23;0.90;;;4.80;82.40;;;;;;5063710;28;20365;-80
2021/04/26 00:05:43;;;;;;;10.40;1.20;;;4.80;82.60;;;;;;5098286;27;1471904;-80
2021/04/26 00:08:20;;;;;;;7.83;1.30;;;4.70;82.60;;;;;;5103962;27;21195;-80
2021/04/26 00:10:58;;;;;;;5.67;1.07;;;4.70;82.50;;;;;;5145405;27;20623;-79
2021/04/26 00:13:34;;;;;;;7.67;0.90;;;4.70;82.60;;;;;;5140054;27;771931;-80
2021/04/26 00:16:12;;;;;;;7.70;1.20;;;4.60;82.60;;;;;;5095664;27;20395;-81
2021/04/26 00:18:50;;;;;;;7.53;1.53;;;4.60;82.60;;;;;;5064742;28;20375;-80
2021/04/26 00:21:27;;;;;;;6.33;0.90;;;4.60;82.50;;;;;;5124741;27;20310;-80
2021/04/26 00:24:06;;;;;;;9.53;0.97;;;4.60;82.50;;;;;;5103538;27;20363;-80
2021/04/26 00:26:43;;;;;;;5.67;1.03;;;4.50;82.50;;;;;;5063533;28;20751;-80
2021/04/26 00:29:18;;;;;;;6.93;1.50;;;4.50;82.50;;;;;;5094185;27;1458334;-80
2021/04/26 00:31:56;;;;;;;8.03;1.10;;;4.50;82.70;;;;;;5104098;27;20460;-80
2021/04/26 00:34:33;;;;;;;4.23;0.87;;;4.50;82.80;;;;;;5102895;27;20647;-80
2021/04/26 00:37:10;;;;;;;9.63;1.57;;;4.50;82.70;;;;;;5065524;28;20389;-80
2021/04/26 00:39:48;;;;;;;7.70;0.90;;;4.50;82.70;;;;;;5127181;27;20110;-80
2021/04/26 00:42:26;;;;;;;9.93;1.50;;;4.40;82.70;;;;;;5105087;27;20403;-81
2021/04/26 00:45:12;;;;;;;6.77;1.40;;;4.40;82.70;;;;;;5102824;27;20323;-79
2021/04/26 00:47:49;;;;;;;6.73;0.97;;;4.40;82.90;;;;;;5084815;27;1459361;-80
2021/04/26 00:50:29;;;;;;;6.43;0.90;;;4.40;82.90;;;;;;5096186;27;20860;-80
2021/04/26 00:53:06;;;;;;;5.97;1.20;;;4.30;83.20;;;;;;5106435;27;20411;-80
2021/04/26 00:55:46;;;;;;;6.23;0.90;;;4.30;83.10;;;;;;5083087;28;20425;-80
2021/04/26 00:58:22;;;;;;;7.93;1.40;;;4.30;83.20;;;;;;5107790;27;783727;-79
2021/04/26 01:01:00;;;;;;;8.73;1.40;;;4.20;83.40;;;;;;5064925;28;20435;-80
2021/04/26 01:03:36;;;;;;;8.47;1.47;;;4.20;83.80;;;;;;5079261;28;20428;-80
2021/04/26 01:06:14;;;;;;;8.77;1.27;;;4.20;84.00;;;;;;5108381;27;20381;-80
2021/04/26 01:08:54;;;;;;;4.67;0.90;;;4.20;83.70;;;;;;5064549;28;20353;-79
2021/04/26 01:11:55;;;;;;;3.90;0.70;;;4.20;83.80;;;;;;5156147;27;20114;-80
2021/04/26 01:15:17;;;;;;;4.20;0.90;;;4.20;83.90;;;;;;5106315;27;20362;-79
2021/04/26 01:17:58;;;;;;;5.67;1.10;;;4.10;83.70;;;;;;5064175;28;20055;-79
2021/04/26 01:20:50;;;;;;;4.57;0.90;;;4.10;83.90;;;;;;5095033;27;20865;-80
2021/04/26 01:23:47;;;;;;;9.43;1.23;;;4.10;84.50;;;;;;5120976;27;20424;-80
2021/04/26 01:26:41;;;;;;;5.37;0.87;;;4.00;84.10;;;;;;5147467;27;768382;-80
2021/04/26 01:29:48;;;;;;;3.87;0.77;;;4.00;84.20;;;;;;5071814;27;21273;-80
2021/04/26 01:33:01;;;;;;;6.97;0.97;;;4.00;84.10;;;;;;5104548;27;20390;-80
2021/04/26 01:35:39;;;;;;;6.57;1.20;;;4.00;84.60;;;;;;5080822;27;20786;-80
2021/04/26 01:38:25;;;;;;;9.10;1.20;;;4.00;84.40;;;;;;5069749;28;20367;-80
2021/04/26 01:41:03;;;;;;;6.83;1.40;;;4.00;84.40;;;;;;5063340;28;20955;-80
2021/04/26 01:43:43;;;;;;;7.83;1.10;;;4.00;84.40;;;;;;5108185;27;20453;-80
2021/04/26 01:46:22;;;;;;;9.03;1.43;;;3.90;84.40;;;;;;5104274;27;20351;-80
2021/04/26 01:49:01;;;;;;;9.80;1.40;;;3.90;84.50;;;;;;5063486;28;20708;-80
2021/04/26 01:51:41;;;;;;;9.50;1.73;;;3.90;84.50;;;;;;5117132;27;769806;-80
2021/04/26 01:54:21;;;;;;;7.97;1.20;;;3.90;84.90;;;;;;5105907;27;20370;-80
2021/04/26 01:56:59;;;;;;;7.37;1.47;;;3.80;84.90;;;;;;5104094;27;20355;-80
2021/04/26 01:59:38;;;;;;;7.27;1.00;;;3.80;84.70;;;;;;5104114;27;20437;-80
2021/04/26 02:02:17;;;;;;;5.57;1.00;;;3.80;85.50;;;;;;5104129;27;20379;-80
2021/04/26 02:04:56;;;;;;;7.00;1.87;;;3.80;85.10;;;;;;5109420;27;758147;-80
2021/04/26 02:07:36;;;;;;;8.73;1.40;;;3.80;85.40;;;;;;5063864;28;20708;-79
2021/04/26 02:10:29;;;;;;;5.13;1.10;;;3.80;85.80;;;;;;5070469;27;20361;-80
2021/04/26 02:13:07;;;;;;;5.63;1.83;;;3.80;86.00;;;;;;5105400;27;20404;-80
2021/04/26 02:15:45;;;;;;;7.33;0.90;;;3.70;86.00;;;;;;5136511;27;798340;-79
2021/04/26 02:18:22;;;;;;;5.27;1.23;;;3.70;86.00;;;;;;5104211;27;20770;-79
2021/04/26 02:21:01;;;;;;;4.10;1.03;;;3.70;86.20;;;;;;5064027;28;20361;-79
2021/04/26 02:23:39;;;;;;;5.10;1.30;;;3.70;86.10;;;;;;5133308;27;777494;-80
2021/04/26 02:26:16;;;;;;;6.00;0.97;;;3.70;86.10;;;;;;5063288;28;20776;-80
2021/04/26 02:28:55;;;;;;;4.93;1.57;;;3.60;86.10;;;;;;5103298;27;20355;-81
2021/04/26 02:31:35;;;;;;;6.50;1.20;;;3.60;86.10;;;;;;5104566;27;20115;-80
2021/04/26 02:34:19;;;;;;;4.17;1.20;;;3.70;86.50;;;;;;5062617;28;20389;-80
2021/04/26 02:37:11;;;;;;;6.33;1.40;;;3.60;86.60;;;;;;5105701;27;20381;-80
2021/04/26 02:39:51;;;;;;;6.73;1.20;;;3.60;86.70;;;;;;5102793;27;20380;-80
2021/04/26 02:42:31;;;;;;;8.00;1.73;;;3.70;86.70;;;;;;5064511;28;20404;-80
2021/04/26 02:45:13;;;;;;;9.03;1.40;;;3.70;86.60;;;;;;5100504;27;20376;-80
2021/04/26 02:47:51;;;;;;;6.53;1.40;;;3.60;86.40;;;;;;5114077;27;786654;-80
2021/04/26 02:50:34;;;;;;;7.67;1.17;;;3.60;86.60;;;;;;5089918;27;20405;-80
2021/04/26 02:53:18;;;;;;;7.03;0.90;;;3.60;86.80;;;;;;5138467;27;773102;-80
2021/04/26 02:56:16;;;;;;;8.57;1.03;;;3.60;86.60;;;;;;5116000;27;20109;-80
2021/04/26 03:01:21;;;;;;;8.03;0.80;;;3.60;86.80;;;;;;5101500;27;20393;-80
2021/04/26 03:04:10;;;;;;;6.27;1.00;;;3.50;86.80;;;;;;5126227;27;20306;-80
2021/04/26 03:06:48;;;;;;;3.97;1.20;;;3.50;87.10;;;;;;5120188;27;763800;-80
2021/04/26 03:09:33;;;;;;;3.77;1.20;;;3.50;87.10;;;;;;5144282;27;20313;-80
2021/04/26 03:12:10;;;;;;;7.03;1.40;;;3.50;87.20;;;;;;5079946;28;20404;-79
2021/04/26 03:14:52;;;;;;;5.80;1.07;;;3.50;87.30;;;;;;5062189;28;20357;-79
2021/04/26 03:17:29;;;;;;;5.90;0.97;;;3.40;87.50;;;;;;5114181;27;777339;-79
2021/04/26 03:20:15;;;;;;;8.73;1.70;;;3.40;87.60;;;;;;5098718;27;20388;-79
2021/04/26 03:23:02;;;;;;;9.83;1.30;;;3.40;87.60;;;;;;5076938;28;20035;-79
2021/04/26 03:25:40;;;;;;;8.67;1.40;;;3.40;88.00;;;;;;5062632;28;20369;-79
2021/04/26 03:28:21;;;;;;;5.60;1.37;;;3.40;87.90;;;;;;5090074;28;20412;-79
2021/04/26 03:31:00;;;;;;;7.37;1.53;;;3.40;88.20;;;;;;5145360;27;20852;-79
2021/04/26 03:33:48;;;;;;;10.37;1.13;;;3.40;88.20;;;;;;5103692;27;20351;-79
2021/04/26 03:36:26;;;;;;;4.70;1.10;;;3.30;88.40;;;;;;5111005;27;20825;-79
2021/04/26 03:39:08;;;;;;;4.57;1.17;;;3.30;88.70;;;;;;5063364;28;20361;-79
2021/04/26 03:41:46;;;;;;;5.67;1.27;;;3.30;88.60;;;;;;5063705;28;20357;-79
2021/04/26 03:44:23;;;;;;;11.80;1.30;;;3.30;89.10;;;;;;5102510;27;20108;-79
2021/04/26 03:47:18;;;;;;;9.90;1.40;;;3.30;89.00;;;;;;5063643;28;20411;-79
2021/04/26 03:50:15;;;;;;;9.17;1.90;;;3.30;89.40;;;;;;5094607;27;20445;-80
2021/04/26 03:53:49;;;;;;;13.53;2.57;;;3.30;89.90;;;;;;5108669;27;20383;-80
2021/04/26 03:56:36;;;;;;;7.23;1.60;;;3.20;89.80;;;;;;5108198;27;769140;-79
2021/04/26 03:59:14;;;;;;;9.53;1.27;;;3.20;89.80;;;;;;5124455;27;760471;-80
2021/04/26 04:01:54;;;;;;;6.93;1.73;;;3.20;89.80;;;;;;5104947;27;20374;-79
2021/04/26 04:04:32;;;;;;;8.47;1.73;;;3.20;90.00;;;;;;5063963;28;21227;-79
2021/04/26 04:07:28;;;;;;;6.73;1.63;;;3.20;90.10;;;;;;5104644;27;20423;-79
2021/04/26 04:10:25;;;;;;;9.97;1.67;;;3.20;90.10;;;;;;5104093;27;20355;-80
2021/04/26 04:13:27;;;;;;;10.20;2.03;;;3.10;90.20;;;;;;5037819;28;20381;-80
2021/04/26 04:15:53;;;;;;;12.73;2.43;;;3.10;90.30;;;;;;5077221;28;20047;-80
2021/04/26 04:18:33;;;;;;;6.93;1.87;;;3.10;90.50;;;;;;5082011;28;20412;-80
2021/04/26 04:21:11;;;;;;;8.87;2.37;;;3.10;90.70;;;;;;5067594;28;20367;-80
2021/04/26 04:23:51;;;;;;;7.70;1.70;;;3.10;90.90;;;;;;5054353;27;20373;-80
2021/04/26 04:26:30;;;;;;;6.67;1.50;;;3.10;90.50;;;;;;5103439;27;20380;-80
2021/04/26 04:29:15;;;;;;;7.97;1.97;;;3.10;90.70;;;;;;5094758;27;20402;-80
2021/04/26 04:31:57;;;;;;;7.47;1.83;;;3.10;90.50;;;;;;5109263;27;770745;-80
2021/04/26 04:34:51;;;;;;;7.40;1.60;;;3.10;90.70;;;;;;5112175;27;781419;-80
2021/04/26 04:37:37;;;;;;;9.00;1.80;;;3.10;90.60;;;;;;5090719;28;20051;-80
2021/04/26 04:40:38;;;;;;;5.27;1.90;;;3.10;90.70;;;;;;5046501;28;20037;-79
2021/04/26 04:43:22;;;;;;;9.13;1.70;;;3.20;91.20;;;;;;5095730;28;20043;-80
2021/04/26 04:45:55;;;;;;;11.87;1.70;;;3.20;90.80;;;;;;5098452;28;20378;-80
2021/04/26 04:48:39;;;;;;;8.60;1.60;;;3.30;90.80;;;;;;5116917;28;20035;-80
2021/04/26 04:51:10;;;;;;;5.17;1.50;;;3.40;90.70;;;;;;5082069;28;20036;-79
2021/04/26 04:53:40;;;;;;;7.63;1.53;;;3.40;90.60;;;;;;5079596;28;20035;-80
2021/04/26 04:56:06;;;;;;;7.77;1.50;;;3.50;90.60;;;;;;5102391;28;20046;-79
2021/04/26 04:58:38;;;;;;;6.47;1.43;;;3.60;90.50;;;;;;5112434;28;20420;-79
2021/04/26 05:01:06;;;;;;;7.23;1.33;;;3.70;90.40;;;;;;5112477;28;20054;-79
2021/04/26 05:04:02;;;;;;;11.17;1.63;;;3.80;90.30;;;;;;5057885;28;20435;-80
2021/04/26 05:06:48;;;;;;;8.50;1.83;;;4.00;90.10;;;;;;5112953;28;20036;-80
2021/04/26 05:09:32;;;;;;;7.03;1.33;;;4.10;89.50;;;;;;5112472;28;20035;-80
2021/04/26 05:12:18;;;;;;;5.27;1.30;;;4.20;89.00;;;;;;5116726;28;20044;-80
2021/04/26 05:15:09;;;;;;;10.30;1.80;;;4.30;88.70;;;;;;5107735;28;20031;-80
2021/04/26 05:17:36;;;;;;;7.30;1.60;;;4.30;88.60;;;;;;5079177;28;20051;-80
2021/04/26 05:20:04;;;;;;;9.47;1.80;;;4.30;88.60;;;;;;5094724;28;20039;-80
2021/04/26 05:22:35;;;;;;;7.97;1.30;;;4.30;88.60;;;;;;5088620;28;20110;-80
2021/04/26 05:25:08;;;;;;;11.17;1.80;;;4.30;88.60;;;;;;5091008;28;20036;-80
2021/04/26 05:27:36;;;;;;;5.67;1.27;;;4.40;88.50;;;;;;5074759;28;20028;-80
2021/04/26 05:30:05;;;;;;;8.63;1.57;;;4.40;88.40;;;;;;5081248;28;20042;-80
2021/04/26 05:32:32;;;;;;;9.20;1.60;;;4.40;88.30;;;;;;5080224;28;20036;-79
2021/04/26 05:35:05;;;;;;;9.68;1.77;;;4.50;88.20;;;;;;5090680;28;20055;-79
2021/04/26 05:37:33;;;;;;;5.43;1.60;;;4.60;88.00;;;;;;5069540;28;20049;-80
2021/04/26 05:39:59;;;;;;;8.73;1.60;;;4.70;87.90;;;;;;5094364;28;20028;-80
2021/04/26 05:42:27;;;;;;;7.77;1.70;;;4.80;87.50;;;;;;5060213;28;20047;-80
2021/04/26 05:44:54;;;;;;;7.23;1.53;;;4.90;87.30;;;;;;5060607;28;20051;-79
2021/04/26 05:47:40;;;;;;;7.00;1.60;;;5.00;86.80;;;;;;5077768;28;20454;-78
2021/04/26 05:50:06;;;;;;;8.33;1.70;;;5.20;86.40;;;;;;5067660;28;20483;-80
2021/04/26 05:52:33;;;;;;;6.30;1.20;;;5.30;86.00;;;;;;5064863;28;20036;-80
2021/04/26 05:54:59;;;;;;;6.37;1.30;;;5.50;85.40;;;;;;5051121;28;20040;-79
2021/04/26 05:57:25;;;;;;;6.30;1.27;;;5.70;85.10;;;;;;5077457;28;20611;-79
2021/04/26 05:59:52;;;;;;;9.73;1.70;;;5.80;84.40;;;;;;5064592;28;20036;-79
2021/04/26 06:02:19;;;;;;;9.13;1.50;;;6.00;83.90;;;;;;5077411;28;20369;-79
2021/04/26 06:04:46;;;;;;;6.50;2.20;;;6.20;83.00;;;;;;5077655;28;20055;-79
2021/04/26 06:07:12;;;;;;;7.07;1.70;;;6.40;82.70;;;;;;5075068;28;20033;-79
2021/04/26 06:09:38;;;;;;;7.87;1.30;;;6.50;81.90;;;;;;5080054;28;20036;-80
2021/04/26 06:12:05;;;;;;;5.10;1.43;;;6.60;81.40;;;;;;5051452;28;20040;-80
2021/04/26 06:14:32;;;;;;;11.17;2.07;;;6.70;80.60;;;;;;5051489;28;20044;-80
2021/04/26 06:16:58;;;;;;;9.60;1.37;;;6.80;80.20;;;;;;5063381;28;20035;-80
2021/04/26 06:19:25;;;;;;;8.63;1.73;;;6.90;79.80;;;;;;5033235;28;20028;-81
2021/04/26 06:21:51;;;;;;;6.53;1.30;;;7.10;79.20;;;;;;5043940;28;20040;-79
2021/04/26 06:24:17;;;;;;;7.93;1.97;;;7.20;78.20;;;;;;5066685;28;20056;-79
2021/04/26 06:26:44;;;;;;;6.37;0.97;;;7.30;78.10;;;;;;5081064;28;20048;-79
2021/04/26 06:29:10;;;;;;;4.97;1.20;;;7.30;77.50;;;;;;5072748;28;20036;-79
2021/04/26 06:31:37;;;;;;;6.33;1.03;;;7.50;77.60;;;;;;5082705;28;20041;-79
2021/04/26 06:34:04;;;;;;;8.07;1.23;;;7.70;77.20;;;;;;5033195;28;20419;-80
2021/04/26 06:36:30;;;;;;;6.67;1.10;;;8.00;76.20;;;;;;5065872;28;20513;-83
2021/04/26 06:38:56;;;;;;;6.53;1.27;;;8.30;74.20;;;;;;5061996;28;20043;-84
2021/04/26 06:41:23;;;;;;;5.20;0.87;;;8.60;73.70;;;;;;5058781;28;20039;-82
2021/04/26 06:43:49;;;;;;;8.47;1.00;;;8.90;73.00;;;;;;5061703;28;20391;-79
2021/04/26 06:46:16;;;;;;;2.40;0.60;;;9.10;72.50;;;;;;5033328;28;20063;-83
2021/04/26 06:48:42;;;;;;;5.90;1.13;;;9.30;71.90;;;;;;5060748;28;20055;-84
2021/04/26 06:51:09;;;;;;;7.77;0.90;;;9.40;71.70;;;;;;5088337;28;20043;-83
2021/04/26 06:53:35;;;;;;;5.20;0.80;;;9.60;70.60;;;;;;5078380;28;20048;-83
2021/04/26 06:56:02;;;;;;;5.40;0.90;;;9.70;70.00;;;;;;5075992;28;20062;-83
2021/04/26 06:58:28;;;;;;;5.22;0.88;;;9.90;68.90;;;;;;5072824;28;20612;-83
2021/04/26 07:00:54;;;;;;;3.65;0.65;;;10.20;68.10;;;;;;5076365;28;20395;-82
2021/04/26 07:03:21;;;;;;;4.90;0.50;;;10.40;65.70;;;;;;5076369;28;20036;-84
2021/04/26 07:05:47;;;;;;;3.70;0.60;;;10.50;65.70;;;;;;5073284;28;20055;-84
2021/04/26 07:08:14;;;;;;;5.75;0.88;;;10.60;63.80;;;;;;5076273;28;20036;-84
2021/04/26 07:10:40;;;;;;;3.95;0.68;;;10.50;63.30;;;;;;5059223;28;20036;-84
2021/04/26 07:13:06;;;;;;;5.05;0.52;;;10.40;64.10;;;;;;5073628;28;20501;-84
2021/04/26 07:15:33;;;;;;;5.32;0.85;;;10.50;64.00;;;;;;5077529;28;20489;-84
2021/04/26 07:17:59;;;;;;;6.85;0.82;;;10.60;63.40;;;;;;5079167;28;20040;-84
2021/04/26 07:20:26;;;;;;;3.20;0.70;;;10.60;63.00;;;;;;5025673;28;20045;-84
2021/04/26 07:22:52;;;;;;;4.47;0.70;;;10.70;62.20;;;;;;5076878;28;20036;-83
2021/04/26 07:25:19;;;;;;;6.30;1.08;;;10.80;62.60;;;;;;5074012;28;20040;-84
2021/04/26 07:27:45;;;;;;;3.15;0.40;;;10.90;62.00;;;;;;5075025;28;20088;-83
2021/04/26 07:30:12;;;;;;;3.53;0.73;;;11.00;61.40;;;;;;5074088;28;20036;-84
2021/04/26 07:32:40;;;;;;;3.08;0.70;;;11.10;60.80;;;;;;5063544;28;20036;-84
2021/04/26 07:35:11;;;;;;;4.60;0.55;;;11.20;60.60;;;;;;5075719;28;20142;-84
2021/04/26 07:37:38;;;;;;;2.80;0.55;;;11.20;59.70;;;;;;5074350;28;20041;-85
2021/04/26 07:40:07;;;;;;;4.03;0.70;;;11.20;59.30;;;;;;5080357;28;20050;-84
2021/04/26 07:42:33;;;;;;;3.85;0.70;;;11.30;59.00;;;;;;5061485;28;20035;-85
2021/04/26 07:45:00;;;;;;;4.60;0.93;;;11.20;58.20;;;;;;5046707;28;20051;-85
2021/04/26 07:47:26;;;;;;;3.58;0.60;;;11.20;57.90;;;;;;5076996;28;20040;-84
2021/04/26 07:49:53;;;;;;;3.83;1.17;;;11.20;57.60;;;;;;5076872;28;20047;-85
2021/04/26 07:52:19;;;;;;;3.90;0.65;;;11.30;57.50;;;;;;5077750;28;20043;-84
2021/04/26 07:54:46;;;;;;;2.35;0.85;;;11.50;58.00;;;;;;5075185;28;20055;-84
2021/04/26 07:57:12;;;;;;;3.78;0.73;;;11.60;56.20;;;;;;5075524;28;20739;-85
2021/04/26 07:59:57;;;;;;;4.63;0.70;;;11.60;55.60;;;;;;5066067;28;20494;-85
2021/04/26 08:02:44;;;;;;;3.53;0.70;;;11.80;55.20;;;;;;5014921;28;20047;-82
2021/04/26 08:05:32;;;;;;;3.97;0.77;;;11.80;54.80;;;;;;5028247;28;20623;-80
2021/04/26 08:08:18;;;;;;;2.63;0.88;;;11.90;55.40;;;;;;5034942;28;20036;-80
2021/04/26 08:11:05;;;;;;;4.68;0.85;;;12.00;54.90;;;;;;4987578;28;20402;-80
2021/04/26 08:13:52;;;;;;;2.15;0.80;;;12.20;54.90;;;;;;5027938;28;20040;-80
2021/04/26 08:16:39;;;;;;;4.80;0.70;;;12.40;54.70;;;;;;5027238;28;20043;-80
2021/04/26 08:19:26;;;;;;;3.80;0.70;;;12.60;54.20;;;;;;5042992;28;20490;-80
2021/04/26 08:22:13;;;;;;;2.78;0.90;;;12.70;53.60;;;;;;5038372;28;20051;-80
2021/04/26 08:25:00;;;;;;;3.03;1.15;;;12.80;53.20;;;;;;5028644;28;20047;-80
2021/04/26 08:27:47;;;;;;;2.60;0.80;;;12.90;52.70;;;;;;5009475;28;20044;-79
2021/04/26 08:30:34;;;;;;;2.50;0.75;;;13.00;52.90;;;;;;5028230;28;20051;-80
2021/04/26 08:33:20;;;;;;;2.30;0.70;;;13.10;52.70;;;;;;5025087;28;20475;-80
2021/04/26 08:36:09;;;;;;;2.72;0.73;;;13.10;52.20;;;;;;5012748;28;20047;-80
2021/04/26 08:38:56;;;;;;;2.55;0.45;;;13.20;52.50;;;;;;5027889;28;20505;-80
2021/04/26 08:41:44;;;;;;;6.65;0.60;;;13.30;52.30;;;;;;5011398;28;20044;-80
2021/04/26 08:44:31;;;;;;;2.78;0.65;;;13.40;50.70;;;;;;5013931;28;20060;-80
2021/04/26 08:47:21;;;;;;;4.10;0.90;;;13.50;49.30;;;;;;5026375;28;20513;-80
2021/04/26 08:50:09;;;;;;;2.10;0.63;;;13.50;49.30;;;;;;5052368;28;20413;-80
2021/04/26 08:52:56;;;;;;;3.90;0.85;;;13.60;49.00;;;;;;5025278;28;20505;-80
2021/04/26 08:55:42;;;;;;;3.42;0.82;;;13.70;47.40;;;;;;4998569;28;20060;-80
2021/04/26 08:58:29;;;;;;;4.03;1.00;;;13.80;47.40;;;;;;5005402;28;20047;-80
2021/04/26 09:01:16;;;;;;;2.88;0.60;;;13.80;46.50;;;;;;5038826;28;20494;-80
2021/04/26 09:03:42;;;;;;;3.60;0.77;;;13.80;46.10;;;;;;5052733;28;20032;-80
2021/04/26 09:06:12;;;;;;;3.05;0.70;;;13.80;45.00;;;;;;5043132;28;20517;-80
2021/04/26 09:08:54;;;;;;;2.10;0.65;;;13.80;45.70;;;;;;5076232;28;20052;-80
2021/04/26 09:11:21;;;;;;;2.05;0.70;;;13.90;46.20;;;;;;5075300;28;20055;-79
2021/04/26 09:13:49;;;;;;;2.25;0.90;;;14.10;45.10;;;;;;5030291;28;20041;-79
2021/04/26 09:16:22;;;;;;;5.28;2.85;;;14.20;45.20;;;;;;5072858;28;20063;-79
2021/04/26 09:18:51;;;;;;;5.38;2.50;;;14.20;43.80;;;;;;5073184;28;20024;-79
2021/04/26 09:21:29;;;;;;;3.33;1.08;;;14.30;43.80;;;;;;5074132;28;20056;-79
2021/04/26 09:24:18;;;;;;;3.00;0.77;;;14.30;44.40;;;;;;5080632;28;20048;-77
2021/04/26 09:26:48;;;;;;;4.82;1.45;;;14.40;43.90;;;;;;5076845;28;20384;-77
2021/04/26 09:29:22;;;;;;;4.22;1.60;;;14.50;44.30;;;;;;5073871;28;20047;-78
2021/04/26 09:32:19;;;;;;;3.75;1.20;;;14.60;43.80;;;;;;5074109;28;20047;-79
2021/04/26 09:34:50;;;;;;;4.43;0.90;;;14.70;43.90;;;;;;5062008;28;20414;-77
2021/04/26 09:37:20;;;;;;;3.83;1.20;;;14.60;43.60;;;;;;5059291;28;20475;-78
2021/04/26 09:40:14;;;;;;;3.30;1.10;;;14.70;43.40;;;;;;5078033;28;20029;-78
2021/04/26 09:42:55;;;;;;;3.83;1.20;;;14.70;43.00;;;;;;5101705;28;20489;-78
2021/04/26 09:45:25;;;;;;;2.35;0.93;;;14.70;43.50;;;;;;5077790;28;20415;-78
2021/04/26 09:48:20;;;;;;;3.92;1.00;;;14.90;43.60;;;;;;5074020;28;20549;-80
2021/04/26 09:51:20;;;;;;;4.13;1.00;;;15.10;42.90;;;;;;5077955;28;20055;-78
2021/04/26 09:53:55;;;;;;;4.82;0.80;;;15.10;42.00;;;;;;5077965;28;20066;-79
2021/04/26 09:56:27;;;;;;;4.30;1.35;;;15.20;42.00;;;;;;5073214;28;20036;-78
2021/04/26 09:58:56;;;;;;;2.72;0.93;;;15.20;41.20;;;;;;5066219;28;20515;-78
2021/04/26 10:01:22;;;;;;;3.25;0.90;;;15.20;41.70;;;;;;5065180;28;20036;-78
2021/04/26 10:03:49;;;;;;;2.97;0.95;;;15.20;42.10;;;;;;5063994;28;20059;-78
2021/04/26 10:06:18;;;;;;;4.85;1.15;;;15.30;42.00;;;;;;5058415;28;20036;-78
2021/04/26 10:08:49;;;;;;;3.28;0.90;;;15.30;41.50;;;;;;5073316;28;20051;-78
2021/04/26 10:11:17;;;;;;;6.95;1.55;;;15.30;41.60;;;;;;5076140;28;20039;-78
2021/04/26 10:13:45;;;;;;;3.80;1.00;;;15.40;42.00;;;;;;5078624;28;20052;-78
2021/04/26 10:16:33;;;;;;;5.53;0.90;;;15.40;41.90;;;;;;5072178;28;20047;-78
2021/04/26 10:19:00;;;;;;;2.30;0.60;;;15.60;42.50;;;;;;5077191;28;20033;-80
2021/04/26 10:21:26;;;;;;;2.97;0.90;;;15.90;42.40;;;;;;5074431;28;20050;-79
2021/04/26 10:23:54;;;;;;;4.57;0.90;;;16.30;41.10;;;;;;5079008;28;20707;-80
2021/04/26 10:26:39;;;;;;;7.57;1.77;;;16.30;40.60;;;;;;5056625;28;20059;-78
2021/04/26 10:29:11;;;;;;;7.00;1.77;;;16.30;40.20;;;;;;5079311;28;20032;-79
2021/04/26 10:32:00;;;;;;;3.60;1.00;;;16.40;40.00;;;;;;5077790;28;20379;-78
2021/04/26 10:34:27;;;;;;;3.60;0.95;;;16.50;39.40;;;;;;5082373;28;20063;-79
2021/04/26 10:36:57;;;;;;;3.75;0.90;;;16.60;39.10;;;;;;5079092;28;20042;-79
2021/04/26 10:39:25;;;;;;;3.83;1.27;;;16.80;38.50;;;;;;5079300;28;20032;-79
2021/04/26 10:41:56;;;;;;;2.95;1.00;;;16.90;38.80;;;;;;5056814;28;20040;-79
2021/04/26 10:44:40;;;;;;;2.60;1.00;;;17.10;38.40;;;;;;5074484;28;20047;-80
2021/04/26 10:47:16;;;;;;;2.47;0.80;;;17.20;38.50;;;;;;5057956;28;20035;-80
2021/04/26 10:49:44;;;;;;;2.65;1.02;;;17.40;38.50;;;;;;5071656;28;20403;-79
2021/04/26 10:52:29;;;;;;;3.72;1.27;;;17.70;37.70;;;;;;5076225;28;20048;-79
2021/04/26 10:54:57;;;;;;;4.35;2.28;;;18.00;37.70;;;;;;5066437;28;20063;-79
2021/04/26 10:57:49;;;;;;;4.30;1.40;;;18.50;38.10;;;;;;5081868;28;20020;-79
2021/04/26 11:00:31;;;;;;;3.90;1.30;;;18.80;35.60;;;;;;5053535;28;20040;-78
2021/04/26 11:03:04;;;;;;;4.53;1.30;;;18.90;35.30;;;;;;5058480;28;20028;-80
2021/04/26 11:05:34;;;;;;;3.75;0.70;;;18.80;34.80;;;;;;5078302;28;20290;-79
2021/04/26 11:10:32;;;;;;;3.50;1.10;;;19.20;36.10;;;;;;5076886;28;20063;-80
2021/04/26 11:13:01;;;;;;;3.50;1.00;;;19.60;35.40;;;;;;5063941;28;20040;-79
2021/04/26 11:15:28;;;;;;;3.50;1.70;;;19.90;34.30;;;;;;5072928;28;20028;-80
2021/04/26 11:17:55;;;;;;;4.70;1.13;;;20.20;33.80;;;;;;5074080;28;20032;-79
2021/04/26 11:20:23;;;;;;;3.80;1.00;;;20.20;33.30;;;;;;5079800;28;20047;-80
2021/04/26 11:22:56;;;;;;;4.20;1.13;;;20.20;33.20;;;;;;5062101;28;20043;-79
2021/04/26 11:25:39;;;;;;;3.08;1.05;;;20.20;33.10;;;;;;5064149;28;20040;-79
2021/04/26 11:28:12;;;;;;;3.83;1.10;;;20.10;33.10;;;;;;5058597;28;20032;-79
2021/04/26 11:30:50;;;;;;;4.85;0.80;;;20.30;33.70;;;;;;5076867;28;20032;-79
2021/04/26 11:33:18;;;;;;;4.50;1.50;;;20.70;33.20;;;;;;5059850;28;20044;-78
2021/04/26 11:36:07;;;;;;;3.22;1.20;;;21.10;32.90;;;;;;5078436;28;20044;-79
2021/04/26 11:38:34;;;;;;;3.85;1.20;;;21.40;31.90;;;;;;5074567;28;20024;-78
2021/04/26 11:41:01;;;;;;;3.83;0.90;;;21.40;31.30;;;;;;5057893;28;20032;-79
2021/04/26 11:43:27;;;;;;;4.10;0.80;;;21.40;32.20;;;;;;5060131;28;20035;-79
2021/04/26 11:45:54;;;;;;;8.35;1.15;;;21.70;32.00;;;;;;5076803;28;20036;-79
2021/04/26 11:48:26;;;;;;;6.72;1.52;;;22.10;30.80;;;;;;5047539;28;20040;-78
2021/04/26 11:50:54;;;;;;;3.33;1.05;;;22.10;29.90;;;;;;5082667;28;20043;-78
2021/04/26 11:53:25;;;;;;;3.28;1.33;;;21.80;31.00;;;;;;5062849;28;20055;-78
2021/04/26 11:55:52;;;;;;;2.55;0.80;;;22.10;30.40;;;;;;5075932;28;20040;-86
2021/04/26 11:58:25;;;;;;;4.22;0.95;;;22.40;30.50;;;;;;5074386;28;20039;-85
2021/04/26 12:01:03;;;;;;;8.20;1.75;;;22.80;30.00;;;;;;5073354;28;20040;-85
2021/04/26 12:03:30;;;;;;;3.20;1.05;;;22.90;29.70;;;;;;5076567;28;20040;-86
2021/04/26 12:06:02;;;;;;;4.38;1.27;;;23.00;29.10;;;;;;5079893;28;20044;-87
2021/04/26 12:08:45;;;;;;;3.20;0.75;;;23.10;29.50;;;;;;5081437;28;20029;-87
2021/04/26 12:11:16;;;;;;;3.28;1.10;;;23.60;29.60;;;;;;5079027;28;20028;-87
2021/04/26 12:13:43;;;;;;;3.08;1.10;;;24.20;28.70;;;;;;5077808;28;20407;-88
2021/04/26 12:16:09;;;;;;;4.88;0.98;;;24.50;28.20;;;;;;5080771;28;20032;-87
2021/04/26 12:18:38;;;;;;;3.15;0.80;;;24.80;28.10;;;;;;5062356;28;20040;-84
2021/04/26 12:21:06;;;;;;;3.20;1.13;;;25.00;27.30;;;;;;5077924;28;20032;-87
2021/04/26 12:23:36;;;;;;;2.92;1.10;;;25.00;27.00;;;;;;5057800;28;20032;-81
2021/04/26 12:26:02;;;;;;;4.50;1.05;;;25.30;26.60;;;;;;5069961;28;20512;-80
2021/04/26 12:28:42;;;;;;;7.50;2.83;;;25.30;26.30;;;;;;5059746;28;20027;-81
2021/04/26 12:31:18;;;;;;;5.85;1.00;;;25.50;26.10;;;;;;5077492;28;20037;-87
2021/04/26 12:33:44;;;;;;;4.32;0.80;;;25.50;26.30;;;;;;5081597;28;20422;-85
2021/04/26 12:36:11;;;;;;;7.85;1.27;;;25.70;26.30;;;;;;5045206;28;20083;-85
2021/04/26 12:38:38;;;;;;;5.70;1.48;;;25.90;25.40;;;;;;5078595;28;21606;-82
2021/04/26 12:41:11;;;;;;;3.55;0.93;;;25.50;24.90;;;;;;5079714;28;20043;-82
2021/04/26 12:43:40;;;;;;;12.30;6.97;;;25.40;25.50;;;;;;5062121;28;20040;-81
2021/04/26 12:46:08;;;;;;;6.45;2.50;;;25.70;25.80;;;;;;5080144;28;20024;-82
2021/04/26 12:48:35;;;;;;;4.38;1.38;;;26.20;25.60;;;;;;5060191;28;20040;-86
2021/04/26 12:51:06;;;;;;;4.28;0.98;;;26.50;25.00;;;;;;5034840;28;20075;-86
2021/04/26 12:53:34;;;;;;;5.03;0.83;;;26.80;25.10;;;;;;5070473;28;20045;-86
2021/04/26 12:56:02;;;;;;;3.00;0.93;;;27.10;24.60;;;;;;5075581;28;20298;-86
2021/04/26 12:58:33;;;;;;;2.42;0.88;;;27.00;24.50;;;;;;5083998;28;20043;-81
2021/04/26 13:01:00;;;;;;;2.25;0.80;;;27.00;24.30;;;;;;5064207;28;20035;-81
2021/04/26 13:03:31;;;;;;;2.53;0.80;;;27.00;24.30;;;;;;5081590;28;20043;-81
2021/04/26 13:09:39;;;;;;;2.78;0.75;;;27.60;24.10;;;;;;5067169;28;20048;-84
2021/04/26 13:12:06;;;;;;;4.25;0.90;;;27.40;24.00;;;;;;5060319;28;20044;-84
2021/04/26 13:14:34;;;;;;;3.40;0.80;;;27.60;23.60;;;;;;5068969;28;20059;-84
2021/04/26 13:17:10;;;;;;;4.55;1.08;;;27.50;23.70;;;;;;5048480;28;20430;-83
2021/04/26 13:19:39;;;;;;;9.27;5.75;;;27.30;23.80;;;;;;5078581;28;20059;-83
2021/04/26 13:22:27;;;;;;;10.45;7.60;;;27.00;24.00;;;;;;5066325;28;20025;-81
2021/04/26 13:25:00;;;;;;;4.07;2.58;;;26.80;24.50;;;;;;5064417;28;20471;-81
2021/04/26 13:27:47;;;;;;;4.47;2.17;;;26.60;23.90;;;;;;5076507;28;20032;-81
2021/04/26 13:30:17;;;;;;;6.72;2.25;;;26.70;24.20;;;;;;5064296;28;20041;-81
2021/04/26 13:32:44;;;;;;;3.78;1.05;;;26.90;23.50;;;;;;5076934;28;20488;-81
2021/04/26 13:35:11;;;;;;;9.52;6.65;;;26.60;23.20;;;;;;5068348;28;20518;-82
2021/04/26 13:37:37;;;;;;;5.60;2.00;;;26.60;24.00;;;;;;5080262;28;20505;-82
2021/04/26 13:40:04;;;;;;;3.40;1.00;;;26.80;24.00;;;;;;5075022;28;20044;-81
2021/04/26 13:42:31;;;;;;;1.67;0.70;;;27.00;23.50;;;;;;5062881;28;20032;-81
2021/04/26 13:44:59;;;;;;;2.33;0.95;;;27.00;23.30;;;;;;5077679;28;20048;-80